Time;durP1;ratioP1;P1;durP2;ratioP2;P2;SDS_P1;SDS_P2;PMS_P1;PMS_P2;Temp;Humidity;BMP_temperature;BMP_pressure;BME280_temperature;BME280_humidity;BME280_pressure;Samples;Min_cycle;Max_cycle;Signal;HPM_P1;HPM_P2
2023/10/29 00:04:53;;;;;;;23.27;5.87;;;9.20;99.90;;;7.43;100.00;99607.78;10321241;28;96623;-82
2023/10/29 00:09:57;;;;;;;5.57;3.27;;;9.20;99.90;;;7.37;100.00;99608.44;10299287;28;97079;-82
2023/10/29 00:15:01;;;;;;;14.30;4.27;;;9.10;99.90;;;7.34;100.00;99604.31;10304372;28;98018;-82
2023/10/29 00:20:06;;;;;;;9.50;3.13;;;9.10;99.90;;;7.29;100.00;99601.31;10333031;28;96607;-82
2023/10/29 00:25:10;;;;;;;9.73;3.77;;;9.00;99.90;;;7.23;100.00;99602.78;10328627;28;98242;-82
2023/10/29 00:30:14;;;;;;;7.40;3.27;;;9.00;99.90;;;7.21;100.00;99609.22;10296558;28;97218;-81
2023/10/29 00:35:18;;;;;;;14.97;5.07;;;8.90;99.90;;;7.17;100.00;99611.34;10298045;28;96500;-82
2023/10/29 00:40:22;;;;;;;18.73;4.93;;;8.90;99.90;;;7.13;100.00;99617.94;10339382;28;99070;-82
2023/10/29 00:45:26;;;;;;;7.10;3.33;;;8.90;99.90;;;7.06;100.00;99613.44;10316936;28;100226;-81
2023/10/29 00:50:29;;;;;;;7.73;3.87;;;8.80;99.90;;;7.02;100.00;99634.09;10322320;27;96672;-82
2023/10/29 00:55:35;;;;;;;9.50;3.87;;;8.70;99.90;;;6.94;100.00;99618.19;10351432;28;97390;-82
2023/10/29 01:00:39;;;;;;;7.30;3.63;;;8.70;99.90;;;6.90;100.00;99611.59;10312782;28;98562;-82
2023/10/29 01:05:42;;;;;;;13.20;4.00;;;8.70;99.90;;;6.84;100.00;99620.16;10313596;28;96591;-82
2023/10/29 01:10:46;;;;;;;13.10;5.23;;;8.60;99.90;;;6.81;100.00;99610.72;10287736;28;96615;-82
2023/10/29 01:15:50;;;;;;;13.60;5.17;;;8.50;99.90;;;6.77;100.00;99609.38;10327453;28;96645;-82
2023/10/29 01:20:54;;;;;;;10.63;5.20;;;8.50;99.90;;;6.83;100.00;99621.09;10361284;28;96482;-82
2023/10/29 01:25:58;;;;;;;12.20;6.53;;;8.60;99.90;;;6.94;100.00;99618.19;10311292;28;97580;-82
2023/10/29 01:31:02;;;;;;;16.10;5.90;;;8.70;99.90;;;7.04;100.00;99618.06;10299388;28;96689;-82
2023/10/29 01:36:06;;;;;;;14.20;6.70;;;8.80;99.90;;;7.15;100.00;99626.53;10313646;28;98284;-82
2023/10/29 01:41:10;;;;;;;11.40;5.87;;;8.90;99.90;;;7.23;100.00;99629.19;10297175;28;98416;-82
2023/10/29 01:46:13;;;;;;;10.27;5.60;;;9.00;99.90;;;7.31;100.00;99631.03;10314061;28;98779;-82
2023/10/29 01:51:17;;;;;;;13.77;7.93;;;9.00;99.90;;;7.38;100.00;99625.97;10338054;27;96451;-82
2023/10/29 01:56:21;;;;;;;10.37;6.10;;;9.10;99.90;;;7.49;100.00;99628.28;10327017;28;96729;-82
2023/10/29 02:01:25;;;;;;;11.27;5.50;;;9.20;99.90;;;7.56;100.00;99624.03;10298992;28;96507;-82
2023/10/29 02:06:29;;;;;;;19.17;6.83;;;9.30;99.90;;;7.62;100.00;99620.72;10301507;28;97552;-82
2023/10/29 02:11:32;;;;;;;12.90;6.13;;;9.30;99.90;;;7.70;100.00;99633.13;10305276;28;96429;-82
2023/10/29 02:16:36;;;;;;;15.87;6.40;;;9.40;99.90;;;7.76;100.00;99638.59;10306818;28;97030;-82
2023/10/29 02:21:40;;;;;;;20.13;7.83;;;9.50;99.90;;;7.85;100.00;99633.28;10338837;28;96609;-82
2023/10/29 02:26:44;;;;;;;17.70;6.87;;;9.60;99.90;;;7.93;100.00;99638.63;10298256;28;96548;-82
2023/10/29 02:31:47;;;;;;;18.47;7.13;;;9.70;99.90;;;8.00;100.00;99642.25;10342327;28;96544;-82
2023/10/29 02:36:51;;;;;;;16.30;5.97;;;9.70;99.90;;;8.03;100.00;99629.50;10316072;28;98374;-82
2023/10/29 02:41:55;;;;;;;11.13;5.27;;;9.80;99.90;;;8.08;100.00;99638.78;10313979;28;96890;-82
2023/10/29 02:47:00;;;;;;;14.43;5.57;;;9.90;99.90;;;8.08;100.00;99636.94;10298433;28;96819;-82
2023/10/29 02:52:04;;;;;;;16.43;5.27;;;9.90;99.90;;;8.08;100.00;99623.72;10324101;28;96607;-82
2023/10/29 02:57:08;;;;;;;15.20;5.87;;;9.90;99.90;;;8.03;100.00;99624.22;10321108;28;98653;-82
2023/10/29 03:02:11;;;;;;;21.00;5.67;;;9.90;99.90;;;8.04;100.00;99638.28;10298650;28;96999;-82
2023/10/29 03:07:16;;;;;;;13.60;5.60;;;9.90;99.90;;;8.05;100.00;99629.34;10362301;28;96985;-82
2023/10/29 03:12:21;;;;;;;20.73;6.27;;;9.80;99.90;;;8.08;100.00;99630.84;10327017;28;97515;-82
2023/10/29 03:17:24;;;;;;;18.50;6.80;;;9.90;99.90;;;8.15;100.00;99632.63;10325597;28;96620;-82
2023/10/29 03:22:28;;;;;;;16.03;5.53;;;9.90;99.90;;;8.19;100.00;99646.38;10331107;28;97497;-82
2023/10/29 03:27:32;;;;;;;14.57;4.60;;;9.90;99.90;;;8.19;100.00;99647.22;10303633;28;96948;-82
2023/10/29 03:32:35;;;;;;;11.40;4.57;;;10.00;99.90;;;8.23;100.00;99653.00;10365986;28;97178;-82
2023/10/29 03:37:39;;;;;;;12.93;4.70;;;10.00;99.90;;;8.23;100.00;99656.47;10362036;28;96858;-82
2023/10/29 03:42:43;;;;;;;19.00;5.77;;;10.00;99.90;;;8.26;100.00;99653.47;10336616;28;96622;-82
2023/10/29 03:47:46;;;;;;;19.00;4.33;;;10.00;99.90;;;8.26;100.00;99636.78;10310071;28;99309;-82
2023/10/29 03:52:50;;;;;;;13.50;4.50;;;10.00;99.90;;;8.30;100.00;99635.47;10310107;28;96727;-82
2023/10/29 03:57:54;;;;;;;21.73;5.40;;;10.10;99.90;;;8.27;100.00;99631.31;10304459;28;98022;-82
2023/10/29 04:02:57;;;;;;;22.87;5.47;;;10.10;99.90;;;8.28;100.00;99619.75;10335951;28;97376;-82
2023/10/29 04:08:01;;;;;;;11.90;4.27;;;10.10;99.90;;;8.30;100.00;99627.53;10332150;28;96615;-82
2023/10/29 04:13:05;;;;;;;17.70;4.67;;;10.10;99.90;;;8.32;100.00;99629.00;10320075;28;96634;-82
2023/10/29 04:18:08;;;;;;;18.33;4.13;;;10.10;99.90;;;8.35;100.00;99634.97;10314949;28;97463;-82
2023/10/29 04:23:12;;;;;;;18.80;4.50;;;10.10;99.90;;;8.33;100.00;99630.63;10335548;28;96503;-82
2023/10/29 04:28:16;;;;;;;23.90;4.73;;;10.10;99.90;;;8.35;100.00;99635.78;10297655;28;97046;-82
2023/10/29 04:33:20;;;;;;;16.80;4.80;;;10.00;99.90;;;8.35;100.00;99637.63;10300131;28;98470;-82
2023/10/29 04:38:24;;;;;;;21.00;6.03;;;10.10;99.90;;;8.39;100.00;99639.78;10289196;28;97354;-82
2023/10/29 04:43:28;;;;;;;12.20;4.80;;;10.10;99.90;;;8.45;100.00;99639.09;10311476;28;98204;-82
2023/10/29 04:48:31;;;;;;;27.00;5.73;;;10.20;99.90;;;8.46;100.00;99638.13;10303300;28;97427;-82
2023/10/29 04:53:37;;;;;;;16.60;6.77;;;10.20;99.90;;;8.50;100.00;99633.31;10302337;28;98605;-82
2023/10/29 04:58:40;;;;;;;17.83;5.47;;;10.30;99.90;;;8.55;100.00;99641.56;10322480;28;98622;-83
2023/10/29 05:03:44;;;;;;;23.30;7.53;;;10.30;99.90;;;8.55;100.00;99637.09;10302869;28;97255;-83
2023/10/29 05:08:49;;;;;;;31.70;8.07;;;10.30;99.90;;;8.59;100.00;99627.00;10318536;28;96995;-82
2023/10/29 05:13:54;;;;;;;16.83;6.67;;;10.40;99.90;;;8.62;100.00;99636.44;10347038;28;97383;-82
2023/10/29 05:18:59;;;;;;;30.97;7.13;;;10.40;99.90;;;8.64;100.00;99640.59;10328142;28;96637;-82
2023/10/29 05:24:04;;;;;;;23.17;8.07;;;10.40;99.90;;;8.67;100.00;99650.81;10301894;28;98008;-82
2023/10/29 05:29:07;;;;;;;21.20;6.73;;;10.40;99.90;;;8.70;100.00;99654.97;10334180;28;96746;-82
2023/10/29 05:34:11;;;;;;;24.23;7.60;;;10.40;99.90;;;8.69;100.00;99654.13;10338508;28;96789;-83
2023/10/29 05:39:15;;;;;;;19.63;7.50;;;10.50;99.90;;;8.73;100.00;99668.69;10318518;28;98347;-82
2023/10/29 05:44:18;;;;;;;21.10;7.00;;;10.50;99.90;;;8.72;100.00;99658.28;10343815;28;97928;-83
2023/10/29 05:49:22;;;;;;;23.27;8.50;;;10.50;99.90;;;8.76;100.00;99672.84;10335929;28;97292;-82
2023/10/29 05:54:26;;;;;;;18.70;8.37;;;10.50;99.90;;;8.79;100.00;99669.84;10290242;28;96507;-83
2023/10/29 05:59:31;;;;;;;22.23;6.70;;;10.50;99.90;;;8.81;100.00;99670.50;10329136;28;97100;-82
2023/10/29 06:04:35;;;;;;;22.63;7.40;;;10.60;99.90;;;8.83;100.00;99677.28;10294783;28;97186;-83
2023/10/29 06:09:42;;;;;;;24.50;7.70;;;10.60;99.90;;;8.87;100.00;99666.34;10289401;28;96477;-82
2023/10/29 06:14:47;;;;;;;23.30;7.20;;;10.60;99.90;;;8.89;100.00;99686.38;10308084;28;97445;-83
2023/10/29 06:19:51;;;;;;;14.73;7.70;;;10.70;99.90;;;8.91;100.00;99696.81;10326173;28;96712;-83
2023/10/29 06:24:55;;;;;;;18.20;6.67;;;10.70;99.90;;;8.92;100.00;99709.06;10305105;28;96833;-83
2023/10/29 06:29:59;;;;;;;19.80;6.43;;;10.60;99.90;;;8.92;100.00;99727.59;10306181;28;97748;-83
2023/10/29 06:35:04;;;;;;;19.23;6.50;;;10.70;99.90;;;8.92;100.00;99719.66;10316926;28;96566;-83
2023/10/29 06:40:08;;;;;;;16.67;7.00;;;10.70;99.90;;;8.94;100.00;99715.03;10296711;28;96437;-83
2023/10/29 06:45:14;;;;;;;22.33;7.47;;;10.70;99.90;;;8.96;100.00;99718.34;10297759;28;96676;-83
2023/10/29 06:50:18;;;;;;;38.10;6.90;;;10.70;99.90;;;8.94;100.00;99726.47;10311144;28;96554;-83
2023/10/29 06:55:23;;;;;;;23.83;7.87;;;10.70;99.90;;;8.96;100.00;99735.06;10306645;28;96654;-83
2023/10/29 07:00:26;;;;;;;21.67;7.03;;;10.70;99.90;;;9.00;100.00;99725.78;10362984;28;96523;-83
2023/10/29 07:05:30;;;;;;;19.20;6.93;;;10.80;99.90;;;9.03;100.00;99733.38;10321011;28;96499;-83
2023/10/29 07:10:35;;;;;;;24.23;7.90;;;10.80;99.90;;;9.07;100.00;99741.84;10386963;28;96848;-83
2023/10/29 07:15:40;;;;;;;29.50;10.10;;;10.80;99.90;;;9.07;100.00;99740.00;10315417;28;96644;-83
2023/10/29 07:20:45;;;;;;;31.33;9.40;;;10.80;99.90;;;9.13;100.00;99741.16;10295382;28;97573;-83
2023/10/29 07:25:50;;;;;;;17.57;7.97;;;10.80;99.90;;;9.17;100.00;99734.50;10335156;28;96871;-83
2023/10/29 07:30:55;;;;;;;25.00;12.27;;;10.90;99.90;;;9.23;100.00;99751.53;10315414;28;98729;-83
2023/10/29 07:36:03;;;;;;;30.17;13.60;;;11.00;99.90;;;9.24;100.00;99745.28;10290945;28;97022;-83
2023/10/29 07:41:07;;;;;;;23.53;10.23;;;11.00;99.90;;;9.26;100.00;99727.38;10321772;28;96692;-83
2023/10/29 07:46:10;;;;;;;29.87;10.03;;;11.00;99.90;;;9.31;100.00;99727.69;10308981;28;96862;-83
2023/10/29 07:51:14;;;;;;;23.60;10.17;;;11.10;99.90;;;9.36;100.00;99728.00;10325986;28;96647;-84
2023/10/29 07:56:20;;;;;;;22.70;9.40;;;11.10;99.90;;;9.41;100.00;99727.47;10316606;28;96776;-83
2023/10/29 08:01:24;;;;;;;26.70;11.17;;;11.10;99.90;;;9.49;100.00;99724.78;10308221;28;98293;-83
2023/10/29 08:06:30;;;;;;;34.17;11.00;;;11.30;99.90;;;9.48;100.00;99726.63;10312222;28;98327;-83
2023/10/29 08:11:35;;;;;;;26.60;10.80;;;11.20;99.90;;;9.52;100.00;99724.44;10325196;28;96737;-83
2023/10/29 08:16:41;;;;;;;21.67;9.00;;;11.30;99.90;;;9.58;100.00;99724.56;10302526;28;96695;-83
2023/10/29 08:21:44;;;;;;;26.07;11.40;;;11.30;99.90;;;9.66;100.00;99731.69;10314897;28;98486;-83
2023/10/29 08:26:48;;;;;;;34.17;11.77;;;11.40;99.90;;;9.68;100.00;99736.81;10346052;28;96630;-84
2023/10/29 08:31:52;;;;;;;36.37;10.73;;;11.40;99.90;;;9.72;100.00;99732.81;10317998;28;98047;-83
2023/10/29 08:36:56;;;;;;;25.80;11.03;;;11.50;99.90;;;9.78;100.00;99730.28;10332610;28;96645;-83
2023/10/29 08:42:02;;;;;;;25.40;10.37;;;11.50;99.90;;;9.83;100.00;99732.41;10337027;28;98188;-84
2023/10/29 08:47:06;;;;;;;28.13;10.83;;;11.60;99.90;;;9.91;100.00;99743.81;10331907;28;98279;-83
2023/10/29 08:52:10;;;;;;;23.40;9.50;;;11.60;99.90;;;9.95;100.00;99735.50;10333412;28;96757;-83
2023/10/29 08:57:14;;;;;;;22.47;8.90;;;11.70;99.90;;;10.04;100.00;99743.25;10325551;28;97378;-84
2023/10/29 09:02:17;;;;;;;29.43;9.87;;;11.80;99.90;;;10.17;100.00;99732.03;10336218;28;96718;-83
2023/10/29 09:07:21;;;;;;;22.87;9.30;;;11.90;99.90;;;10.28;100.00;99730.84;10331124;28;97428;-83
2023/10/29 09:12:26;;;;;;;20.03;9.20;;;12.00;99.90;;;10.39;100.00;99727.78;10325165;28;97365;-83
2023/10/29 09:17:29;;;;;;;21.10;9.67;;;12.20;99.90;;;10.61;100.00;99728.72;10291072;28;96676;-83
2023/10/29 09:22:33;;;;;;;20.90;8.73;;;12.40;99.90;;;10.83;100.00;99724.38;10345543;28;96713;-83
2023/10/29 09:27:37;;;;;;;16.13;8.23;;;12.60;99.90;;;10.95;100.00;99721.09;10320277;28;98954;-83
2023/10/29 09:32:40;;;;;;;15.77;8.50;;;12.80;99.90;;;11.16;100.00;99728.38;10309773;28;96948;-83
2023/10/29 09:37:44;;;;;;;14.57;7.97;;;13.00;99.90;;;11.36;100.00;99720.66;10323165;28;98303;-83
2023/10/29 09:42:53;;;;;;;12.70;6.87;;;13.10;99.90;;;11.59;100.00;99725.03;10289412;28;98019;-83
2023/10/29 09:48:00;;;;;;;14.83;7.27;;;13.30;99.90;;;11.75;100.00;99708.84;10328100;28;96623;-83
2023/10/29 09:53:06;;;;;;;13.70;7.53;;;13.50;99.90;;;11.81;100.00;99708.13;10278999;28;96660;-83
2023/10/29 09:58:10;;;;;;;19.13;9.63;;;13.50;99.90;;;11.99;100.00;99705.88;10283171;28;96639;-83
2023/10/29 10:03:14;;;;;;;13.95;7.28;;;13.70;99.90;;;12.29;100.00;99701.28;10303183;28;96757;-83
2023/10/29 10:08:29;;;;;;;13.55;7.35;;;14.00;99.90;;;12.70;100.00;99684.56;10330249;28;96778;-83
2023/10/29 10:13:41;;;;;;;13.50;6.60;;;14.50;99.90;;;13.25;100.00;99690.06;10335522;28;97647;-83
2023/10/29 10:18:59;;;;;;;12.75;6.53;;;15.00;99.90;;;13.69;100.00;99686.16;10308928;28;96923;-83
2023/10/29 10:24:03;;;;;;;10.95;6.20;;;15.30;99.90;;;13.98;100.00;99675.16;10321948;28;96976;-84
2023/10/29 10:29:08;;;;;;;15.43;7.30;;;15.50;99.90;;;14.31;100.00;99664.50;10323948;28;96698;-84
2023/10/29 10:34:17;;;;;;;13.00;7.45;;;15.80;99.90;;;14.50;100.00;99657.53;10287270;28;96631;-84
2023/10/29 10:39:22;;;;;;;11.45;5.32;;;16.00;99.90;;;14.52;100.00;99642.13;10295926;28;96473;-83
2023/10/29 10:44:31;;;;;;;13.98;6.38;;;16.20;99.90;;;14.57;100.00;99644.97;10291378;28;96644;-83
2023/10/29 10:49:36;;;;;;;13.38;5.88;;;16.20;99.90;;;14.62;100.00;99647.84;10319321;28;96793;-83
2023/10/29 10:54:43;;;;;;;11.40;6.05;;;16.20;99.90;;;14.61;100.00;99646.22;10309561;28;98315;-83
2023/10/29 10:59:49;;;;;;;11.25;5.97;;;16.40;99.90;;;14.66;100.00;99646.41;10326228;28;96655;-83
2023/10/29 11:04:56;;;;;;;9.68;5.85;;;16.30;99.90;;;14.79;100.00;99629.53;10303167;28;98602;-84
2023/10/29 11:10:02;;;;;;;9.50;4.78;;;16.50;99.90;;;14.97;100.00;99616.31;10293159;28;97977;-84
2023/10/29 11:15:22;;;;;;;13.68;5.68;;;16.80;99.90;;;15.18;100.00;99614.41;10324597;28;97039;-84
2023/10/29 11:20:41;;;;;;;9.45;4.00;;;17.00;99.90;;;15.31;100.00;99617.00;10300513;28;96791;-84
2023/10/29 11:25:45;;;;;;;8.98;5.10;;;17.10;99.90;;;15.34;100.00;99613.91;10325051;28;97312;-84
2023/10/29 11:31:12;;;;;;;9.60;4.45;;;17.10;99.90;;;15.31;100.00;99614.34;10318400;28;97611;-84
2023/10/29 11:36:39;;;;;;;7.75;3.88;;;17.00;99.90;;;15.35;100.00;99602.16;10306508;28;97239;-83
2023/10/29 11:41:47;;;;;;;8.10;4.28;;;17.00;99.90;;;15.47;100.00;99602.28;10330496;28;98418;-83
2023/10/29 11:47:03;;;;;;;8.65;4.13;;;17.10;99.90;;;15.62;100.00;99591.31;10349468;28;97532;-83
2023/10/29 11:52:07;;;;;;;10.57;4.68;;;17.30;99.90;;;15.77;100.00;99575.78;10330518;28;96799;-83
2023/10/29 11:57:13;;;;;;;5.70;3.00;;;17.40;99.90;;;16.08;97.86;99564.22;10292881;28;96499;-84
2023/10/29 12:02:17;;;;;;;2.40;1.35;;;17.60;99.90;;;16.40;98.45;99562.28;10304647;28;96585;-84
2023/10/29 12:07:29;;;;;;;3.55;0.70;;;18.00;99.90;;;16.76;92.50;99563.38;10292936;28;96530;-84
2023/10/29 12:12:35;;;;;;;1.73;0.73;;;18.30;99.90;;;17.08;88.45;99542.56;10312860;28;97111;-83
2023/10/29 12:17:45;;;;;;;6.03;1.27;;;18.60;99.90;;;17.37;81.39;99552.50;10348737;28;96488;-84
2023/10/29 12:22:57;;;;;;;7.13;1.80;;;18.90;99.90;;;17.49;83.93;99541.78;10328645;28;97085;-85
2023/10/29 12:28:02;;;;;;;4.15;1.48;;;19.20;99.90;;;17.63;79.89;99540.56;10292404;28;96583;-83
2023/10/29 12:33:27;;;;;;;1.92;0.40;;;19.30;99.90;;;17.72;78.95;99541.06;10311654;28;96524;-84
2023/10/29 12:38:32;;;;;;;3.15;0.80;;;19.40;99.90;;;17.79;75.98;99528.34;10349779;28;96484;-83
2023/10/29 12:43:41;;;;;;;3.47;0.93;;;19.40;99.60;;;17.83;77.03;99528.72;10347091;28;96594;-84
2023/10/29 12:49:03;;;;;;;2.03;0.70;;;19.50;99.30;;;17.95;74.03;99518.81;10323605;28;96929;-84
2023/10/29 12:54:19;;;;;;;1.90;0.60;;;19.60;98.40;;;17.87;73.22;99508.38;10293490;28;96603;-83
2023/10/29 12:59:31;;;;;;;2.83;0.98;;;19.50;98.30;;;17.76;75.09;99512.69;10293009;28;98496;-83
2023/10/29 13:04:36;;;;;;;2.97;0.70;;;19.50;98.40;;;17.70;77.14;99524.34;10292816;28;96506;-83
2023/10/29 13:09:41;;;;;;;7.72;3.92;;;19.40;98.60;;;17.68;77.52;99521.06;10313286;28;96957;-83
2023/10/29 13:14:46;;;;;;;8.45;3.03;;;19.40;98.60;;;17.71;74.78;99504.47;10347368;28;97185;-83
2023/10/29 13:19:51;;;;;;;5.47;2.13;;;19.40;98.30;;;17.73;76.57;99506.97;10303740;28;96648;-83
2023/10/29 13:24:58;;;;;;;5.60;2.40;;;19.40;98.50;;;17.71;79.31;99511.72;10337931;28;96725;-83
2023/10/29 13:30:03;;;;;;;0.85;0.60;;;19.40;98.90;;;17.87;71.56;99495.78;10350836;28;96509;-83
2023/10/29 13:35:08;;;;;;;1.08;0.73;;;19.50;97.50;;;18.02;71.69;99500.69;10330277;28;96593;-83
2023/10/29 13:40:12;;;;;;;2.40;0.70;;;19.60;97.30;;;18.14;70.80;99493.44;10308404;28;97335;-83
2023/10/29 13:45:17;;;;;;;14.05;4.90;;;19.80;96.80;;;18.17;73.60;99497.50;10305694;28;97412;-83
2023/10/29 13:50:21;;;;;;;3.55;0.95;;;19.80;97.10;;;18.28;69.04;99495.88;10299378;28;98418;-83
2023/10/29 13:55:25;;;;;;;1.83;1.00;;;19.90;96.20;;;18.29;70.00;99487.59;10364718;28;96952;-83
2023/10/29 14:00:29;;;;;;;10.40;3.45;;;19.90;96.40;;;18.26;74.52;99492.63;10348215;28;98130;-83
2023/10/29 14:05:33;;;;;;;5.00;3.10;;;19.90;96.80;;;18.31;68.22;99504.31;10337318;28;96701;-83
2023/10/29 14:10:36;;;;;;;1.85;0.80;;;19.90;96.00;;;18.34;68.15;99519.16;10343038;28;96736;-83
2023/10/29 14:15:40;;;;;;;1.33;0.45;;;20.00;95.50;;;18.34;66.90;99508.38;10316357;28;96607;-83
2023/10/29 14:20:45;;;;;;;1.95;0.50;;;19.90;95.00;;;18.30;69.22;99504.56;10313350;28;96556;-83
2023/10/29 14:25:50;;;;;;;1.67;0.55;;;19.90;95.20;;;18.19;71.34;99495.44;10340075;28;97614;-84
2023/10/29 14:30:54;;;;;;;1.60;0.50;;;19.80;95.60;;;18.13;70.29;99499.88;10346457;28;97297;-82
2023/10/29 14:35:58;;;;;;;4.78;2.10;;;19.80;95.60;;;18.11;70.94;99511.91;10315098;28;96678;-82
2023/10/29 14:41:02;;;;;;;2.05;0.60;;;19.80;95.60;;;18.10;68.55;99508.38;10321014;28;98218;-83
2023/10/29 14:46:06;;;;;;;0.93;0.43;;;19.80;95.40;;;18.07;69.79;99500.00;10318092;28;96823;-83
2023/10/29 14:51:09;;;;;;;2.03;0.40;;;19.70;95.40;;;18.05;69.39;99504.75;10334295;28;97008;-83
2023/10/29 14:56:13;;;;;;;3.75;0.60;;;19.60;95.20;;;17.92;72.38;99512.00;10315420;28;97259;-83
2023/10/29 15:01:17;;;;;;;2.53;0.90;;;19.60;95.70;;;17.77;75.04;99503.59;10324715;28;97470;-83
2023/10/29 15:06:20;;;;;;;4.13;2.35;;;19.50;96.10;;;17.59;74.91;99500.97;10329303;28;97301;-83
2023/10/29 15:11:24;;;;;;;2.22;1.15;;;19.30;96.20;;;17.48;75.31;99504.44;10331353;28;96552;-84
2023/10/29 15:16:39;;;;;;;2.13;0.73;;;19.10;96.40;;;17.45;74.37;99497.63;10325772;28;97680;-83
2023/10/29 15:21:43;;;;;;;1.85;0.80;;;19.10;96.40;;;17.39;74.19;99502.09;10328775;28;97177;-83
2023/10/29 15:26:47;;;;;;;11.10;2.15;;;19.00;96.40;;;17.29;76.71;99496.44;10319055;28;96668;-84
2023/10/29 15:31:50;;;;;;;7.70;1.38;;;18.90;96.80;;;17.24;78.12;99496.28;10311072;28;98897;-83
2023/10/29 15:36:54;;;;;;;3.70;0.90;;;18.90;97.00;;;17.14;79.13;99490.66;10315891;28;96565;-84
2023/10/29 15:41:59;;;;;;;3.45;1.05;;;18.80;97.10;;;17.07;78.33;99514.09;10330754;28;96646;-83
2023/10/29 15:47:03;;;;;;;17.20;7.00;;;18.70;97.20;;;17.05;77.82;99511.63;10312630;28;96635;-83
2023/10/29 15:52:07;;;;;;;9.20;2.50;;;18.70;97.20;;;17.12;74.67;99509.66;10361109;28;96623;-83
2023/10/29 15:57:11;;;;;;;5.07;2.15;;;18.70;96.90;;;17.17;73.78;99514.38;10340198;28;96688;-82
2023/10/29 16:02:15;;;;;;;9.68;3.08;;;18.70;96.70;;;17.12;76.83;99514.22;10307168;28;96637;-82
2023/10/29 16:07:20;;;;;;;8.02;3.67;;;18.70;97.00;;;17.11;74.98;99520.66;10326200;28;96992;-86
2023/10/29 16:12:24;;;;;;;8.13;2.92;;;18.70;96.90;;;17.07;78.99;99517.59;10295538;28;96726;-84
2023/10/29 16:17:29;;;;;;;4.88;1.65;;;18.70;97.10;;;17.10;76.54;99524.38;10336509;28;97216;-81
2023/10/29 16:22:33;;;;;;;6.95;2.03;;;18.70;97.10;;;17.07;76.77;99519.44;10324081;28;96953;-82
2023/10/29 16:27:37;;;;;;;3.75;1.60;;;18.70;97.10;;;17.05;76.72;99530.41;10310214;28;96671;-81
2023/10/29 16:32:40;;;;;;;3.80;1.48;;;18.70;97.20;;;17.09;76.63;99528.94;10316142;28;96533;-81
2023/10/29 16:37:44;;;;;;;2.50;1.00;;;18.70;97.00;;;17.15;75.43;99529.88;10320450;28;97644;-84
2023/10/29 16:42:48;;;;;;;2.97;1.10;;;18.70;96.20;;;17.24;75.51;99541.94;10306224;28;96769;-83
2023/10/29 16:47:51;;;;;;;6.03;2.08;;;18.80;96.40;;;17.22;74.63;99533.31;10323046;28;96800;-83
2023/10/29 16:52:55;;;;;;;5.30;1.60;;;18.80;96.20;;;17.21;74.00;99549.63;10325392;28;96533;-81
2023/10/29 16:58:00;;;;;;;1.95;0.88;;;18.70;96.20;;;17.19;74.24;99552.53;10325602;28;98005;-82
2023/10/29 17:03:04;;;;;;;8.52;3.25;;;18.80;96.30;;;17.13;75.10;99553.44;10331339;28;97730;-81
2023/10/29 17:08:08;;;;;;;4.63;1.70;;;18.70;96.30;;;17.05;75.06;99559.13;10324147;28;96797;-81
2023/10/29 17:13:13;;;;;;;3.92;1.52;;;18.70;96.40;;;16.92;77.80;99543.19;10312169;28;96818;-81
2023/10/29 17:18:17;;;;;;;3.75;1.70;;;18.60;96.50;;;16.87;78.13;99568.00;10320354;28;96638;-82
2023/10/29 17:23:26;;;;;;;1.85;0.90;;;18.50;96.70;;;16.84;80.08;99568.44;10324924;28;97527;-82
2023/10/29 17:28:29;;;;;;;2.53;1.02;;;18.40;96.70;;;16.83;78.76;99573.00;10289539;28;96608;-82
2023/10/29 17:33:37;;;;;;;4.28;1.65;;;18.40;96.70;;;16.76;77.95;99572.25;10283531;28;98079;-81
2023/10/29 17:38:41;;;;;;;5.20;1.08;;;18.30;96.80;;;16.70;79.05;99577.66;10331065;28;97310;-82
2023/10/29 17:43:46;;;;;;;3.97;1.67;;;18.30;97.00;;;16.60;79.08;99568.25;10324974;28;96692;-83
2023/10/29 17:48:53;;;;;;;5.60;1.80;;;18.20;96.80;;;16.52;79.32;99573.09;10346887;28;96643;-82
2023/10/29 17:53:57;;;;;;;2.58;0.60;;;18.10;97.00;;;16.51;77.91;99574.16;10309884;28;96744;-83
2023/10/29 17:59:03;;;;;;;2.63;0.80;;;18.10;96.90;;;16.50;77.53;99575.19;10297160;28;96778;-83
2023/10/29 18:04:07;;;;;;;2.95;0.80;;;18.10;96.90;;;16.51;77.54;99584.88;10298824;28;96541;-83
2023/10/29 18:09:11;;;;;;;3.40;1.27;;;18.10;96.70;;;16.48;77.94;99586.13;10350197;28;97244;-82
2023/10/29 18:14:15;;;;;;;2.55;1.00;;;18.10;96.80;;;16.49;74.71;99566.34;10335088;28;96568;-85
2023/10/29 18:19:20;;;;;;;1.98;0.85;;;18.00;96.40;;;16.47;76.20;99581.81;10290601;28;98544;-84
2023/10/29 18:24:23;;;;;;;1.42;0.63;;;18.00;96.60;;;16.42;74.71;99586.19;10292506;28;96552;-84
2023/10/29 18:29:27;;;;;;;1.98;0.60;;;18.00;96.50;;;16.36;76.78;99582.53;10318053;28;96672;-84
2023/10/29 18:34:31;;;;;;;2.30;0.50;;;18.00;96.60;;;16.38;74.82;99593.88;10302158;28;97147;-83
2023/10/29 18:39:35;;;;;;;3.33;0.68;;;17.90;96.40;;;16.40;74.62;99586.41;10357294;28;97112;-83
2023/10/29 18:44:39;;;;;;;1.50;0.52;;;17.90;96.40;;;16.41;76.08;99592.59;10308031;28;97511;-83
2023/10/29 18:49:43;;;;;;;0.80;0.63;;;18.00;96.40;;;16.43;74.29;99582.47;10316609;28;96564;-82
2023/10/29 18:54:51;;;;;;;8.07;0.85;;;18.00;96.40;;;16.46;74.50;99590.06;10286835;28;96690;-83
2023/10/29 18:59:55;;;;;;;1.73;0.80;;;18.00;96.30;;;16.44;76.18;99592.16;10350169;28;97621;-82
2023/10/29 19:04:59;;;;;;;0.82;0.40;;;18.00;96.50;;;16.40;77.06;99599.00;10317303;28;97689;-82
2023/10/29 19:10:04;;;;;;;10.10;1.15;;;18.00;96.60;;;16.31;78.03;99590.41;10349928;28;97430;-82
2023/10/29 19:15:10;;;;;;;4.50;1.20;;;17.90;96.70;;;16.20;79.88;99586.59;10322816;28;96679;-82
2023/10/29 19:20:15;;;;;;;4.15;1.17;;;17.80;96.80;;;16.06;79.74;99579.69;10322529;28;96908;-82
2023/10/29 19:25:19;;;;;;;2.95;1.10;;;17.70;97.10;;;15.91;81.17;99595.28;10326192;28;96591;-82
2023/10/29 19:30:25;;;;;;;2.38;1.10;;;17.50;97.50;;;15.71;81.95;99590.88;10323679;28;97459;-82
2023/10/29 19:35:32;;;;;;;2.65;0.85;;;17.30;97.70;;;15.66;82.43;99596.06;10309500;28;98454;-82
2023/10/29 19:40:36;;;;;;;1.55;0.70;;;17.30;98.10;;;15.60;83.89;99598.75;10318418;28;96711;-83
2023/10/29 19:45:57;;;;;;;1.10;0.70;;;17.20;98.20;;;15.56;84.35;99594.84;10314279;28;96841;-85
2023/10/29 19:51:06;;;;;;;4.57;1.15;;;17.10;98.40;;;15.69;81.80;99598.28;10313172;28;97578;-84
2023/10/29 19:56:13;;;;;;;4.70;1.55;;;17.20;98.30;;;15.69;83.78;99584.09;10313837;28;98706;-84
2023/10/29 20:01:19;;;;;;;4.10;1.17;;;17.20;98.30;;;15.57;84.82;99593.81;10287640;28;98127;-84
2023/10/29 20:06:23;;;;;;;11.55;3.88;;;17.10;98.70;;;15.46;85.24;99593.44;10336163;28;96648;-83
2023/10/29 20:11:28;;;;;;;21.42;3.08;;;17.10;98.80;;;15.36;86.03;99582.41;10325937;28;96728;-83
2023/10/29 20:16:31;;;;;;;7.20;1.52;;;17.00;98.90;;;15.26;87.98;99584.72;10303367;28;98438;-84
2023/10/29 20:21:39;;;;;;;3.95;1.52;;;16.90;99.30;;;15.19;87.46;99587.41;10290599;28;97016;-84
2023/10/29 20:26:43;;;;;;;5.10;1.30;;;16.80;99.30;;;15.09;88.43;99595.06;10322433;28;98287;-83
2023/10/29 20:31:47;;;;;;;3.78;1.20;;;16.70;99.60;;;14.97;89.67;99580.72;10312407;28;96898;-83
2023/10/29 20:36:51;;;;;;;6.50;1.75;;;16.60;99.80;;;14.86;91.31;99592.06;10314079;28;97938;-84
2023/10/29 20:41:57;;;;;;;3.35;1.92;;;16.50;99.90;;;14.73;92.33;99607.09;10315929;28;96625;-83
2023/10/29 20:47:07;;;;;;;4.90;1.27;;;16.30;99.90;;;14.63;93.47;99598.72;10305106;28;96702;-83
2023/10/29 20:52:13;;;;;;;8.55;1.42;;;16.30;99.90;;;14.60;94.48;99599.13;10291451;28;96640;-83
2023/10/29 20:57:16;;;;;;;3.60;1.40;;;16.20;99.90;;;14.56;95.14;99610.44;10324303;28;99056;-83
2023/10/29 21:02:20;;;;;;;2.15;1.02;;;16.20;99.90;;;14.48;96.24;99605.31;10307173;28;96602;-83